Time;durP1;ratioP1;P1;durP2;ratioP2;P2;SDS_P1;SDS_P2;PMS_P1;PMS_P2;Temp;Humidity;BMP_temperature;BMP_pressure;BME280_temperature;BME280_humidity;BME280_pressure;Samples;Min_cycle;Max_cycle;Signal;HPM_P1;HPM_P2
2023/05/23 00:01:09;;;;;;;15.95;10.13;;;;;;;14.43;90.25;101945.19;6248747;22;20024;-76
2023/05/23 00:03:36;;;;;;;18.45;10.90;;;;;;;14.43;90.40;101941.75;6248707;22;20498;-77
2023/05/23 00:06:05;;;;;;;18.65;9.98;;;;;;;14.39;90.37;101954.53;6248860;22;20040;-77
2023/05/23 00:08:32;;;;;;;22.33;10.43;;;;;;;14.33;90.74;101954.34;6247110;22;20020;-77
2023/05/23 00:10:58;;;;;;;15.63;9.77;;;;;;;14.30;91.18;101944.50;6249192;22;20013;-77
2023/05/23 00:13:25;;;;;;;22.65;10.25;;;;;;;14.27;91.31;101943.44;6248363;22;20027;-76
2023/05/23 00:15:52;;;;;;;16.25;9.75;;;;;;;14.23;91.36;101947.41;6248843;22;20029;-77
2023/05/23 00:18:18;;;;;;;19.08;10.05;;;;;;;14.17;91.40;101947.22;6247037;22;20422;-77
2023/05/23 00:20:45;;;;;;;17.92;9.77;;;;;;;14.15;91.78;101954.19;6249924;22;20013;-76
2023/05/23 00:23:17;;;;;;;17.98;9.70;;;;;;;14.13;91.68;101949.25;6249657;22;20021;-76
2023/05/23 00:25:51;;;;;;;20.73;9.60;;;;;;;14.08;91.76;101949.06;6250715;22;20044;-77
2023/05/23 00:28:18;;;;;;;17.23;9.00;;;;;;;14.03;91.96;101953.78;6249820;22;20020;-76
2023/05/23 00:30:44;;;;;;;16.10;8.88;;;;;;;13.99;91.67;101963.88;6250355;22;20020;-76
2023/05/23 00:33:13;;;;;;;18.35;9.68;;;;;;;13.94;92.34;101955.66;6249797;22;20055;-77
2023/05/23 00:35:41;;;;;;;11.90;8.70;;;;;;;13.89;92.98;101958.88;6249714;22;20076;-77
2023/05/23 00:38:10;;;;;;;13.32;9.23;;;;;;;13.86;93.29;101960.50;6248072;22;20020;-77
2023/05/23 00:40:37;;;;;;;16.23;9.27;;;;;;;13.79;93.33;101968.75;6248543;22;20086;-77
2023/05/23 00:43:04;;;;;;;12.02;8.98;;;;;;;13.76;93.60;101974.22;6250486;22;20071;-77
2023/05/23 00:45:30;;;;;;;14.30;8.57;;;;;;;13.69;93.88;101962.56;6248455;22;20023;-76
2023/05/23 00:47:58;;;;;;;11.95;8.10;;;;;;;13.65;94.03;101967.28;6250798;22;20052;-77
2023/05/23 00:50:30;;;;;;;19.77;8.00;;;;;;;13.59;94.23;101970.94;6249266;22;20024;-78
2023/05/23 00:52:59;;;;;;;8.02;7.15;;;;;;;13.53;95.02;101976.09;6250771;22;20414;-79
2023/05/23 00:55:27;;;;;;;10.00;7.20;;;;;;;13.50;94.82;101976.94;6248138;22;20024;-77
2023/05/23 00:57:56;;;;;;;12.07;7.18;;;;;;;13.44;95.32;101984.00;6248652;22;20518;-78
2023/05/23 01:00:24;;;;;;;7.25;6.35;;;;;;;13.43;95.70;101976.41;6249825;22;20019;-76
2023/05/23 01:02:52;;;;;;;8.68;6.50;;;;;;;13.38;95.67;101977.69;6248593;22;20016;-76
2023/05/23 01:05:21;;;;;;;9.43;6.45;;;;;;;13.37;96.24;101980.78;6249146;22;20451;-76
2023/05/23 01:07:49;;;;;;;10.20;6.43;;;;;;;13.33;96.55;101981.63;6250542;22;20013;-76
2023/05/23 01:10:20;;;;;;;10.57;6.72;;;;;;;13.34;96.68;101971.69;6249658;22;20477;-77
2023/05/23 01:13:05;;;;;;;8.32;5.93;;;;;;;13.31;96.77;101978.63;6250349;22;20025;-76
2023/05/23 01:15:54;;;;;;;10.35;6.50;;;;;;;13.33;96.81;101973.63;6249914;22;20093;-79
2023/05/23 01:18:40;;;;;;;11.48;6.88;;;;;;;13.33;97.16;101972.88;6249449;22;20055;-76
2023/05/23 01:21:14;;;;;;;9.27;6.55;;;;;;;13.31;96.95;101967.19;6249887;22;20082;-76
2023/05/23 01:24:25;;;;;;;8.60;5.97;;;;;;;13.34;96.63;101980.47;6248615;22;20104;-78
2023/05/23 01:27:22;;;;;;;7.90;6.15;;;;;;;13.32;96.77;101971.38;6193319;22;20028;-76
2023/05/23 01:29:55;;;;;;;8.00;6.13;;;;;;;13.30;97.34;101977.16;6250409;22;20084;-77
2023/05/23 01:32:24;;;;;;;9.43;6.40;;;;;;;13.32;97.51;101977.47;6248490;22;20140;-76
2023/05/23 01:34:53;;;;;;;7.68;6.22;;;;;;;13.34;97.63;101969.03;6248189;22;20079;-77
2023/05/23 01:37:19;;;;;;;7.10;6.40;;;;;;;13.34;97.68;101967.09;6249599;22;20469;-76
2023/05/23 01:39:46;;;;;;;8.80;6.88;;;;;;;13.36;97.70;101969.34;6248606;22;20095;-77
2023/05/23 01:42:13;;;;;;;10.23;6.57;;;;;;;13.38;97.90;101966.25;6247454;22;20021;-77
2023/05/23 01:44:41;;;;;;;6.90;6.20;;;;;;;13.39;98.01;101965.81;6248437;22;20417;-77
2023/05/23 01:47:08;;;;;;;9.05;6.68;;;;;;;13.39;97.78;101975.75;6249062;22;20044;-77
2023/05/23 01:49:37;;;;;;;7.20;5.53;;;;;;;13.38;97.57;101968.91;6247740;22;20016;-77
2023/05/23 01:52:04;;;;;;;11.27;6.50;;;;;;;13.38;97.26;101980.34;6248441;22;20470;-77
2023/05/23 01:54:34;;;;;;;9.85;6.47;;;;;;;13.37;97.19;101978.84;6249900;22;20025;-77
2023/05/23 01:57:01;;;;;;;9.13;5.88;;;;;;;13.39;97.07;101978.44;6249568;22;20012;-77
2023/05/23 01:59:28;;;;;;;9.48;6.82;;;;;;;13.38;96.87;101976.94;6247405;22;20017;-77
2023/05/23 02:01:56;;;;;;;8.77;6.22;;;;;;;13.37;96.85;101981.53;6247327;22;20017;-77
2023/05/23 02:04:22;;;;;;;11.68;6.95;;;;;;;13.38;96.63;101990.31;6247323;22;20088;-78
2023/05/23 02:06:50;;;;;;;10.48;6.00;;;;;;;13.35;96.26;101991.91;6249676;22;20025;-77
2023/05/23 02:09:16;;;;;;;10.27;5.90;;;;;;;13.35;96.02;101992.66;6248841;22;20016;-77
2023/05/23 02:11:43;;;;;;;15.30;6.13;;;;;;;13.34;96.07;101996.50;6249684;22;20079;-77
2023/05/23 02:14:11;;;;;;;7.43;5.50;;;;;;;13.32;95.62;102003.47;6247486;22;20099;-77
2023/05/23 02:16:38;;;;;;;10.60;6.25;;;;;;;13.31;95.24;101994.69;6247446;22;20074;-76
2023/05/23 02:19:05;;;;;;;9.23;6.63;;;;;;;13.29;95.03;102005.06;6222518;22;20454;-76
2023/05/23 02:21:31;;;;;;;11.93;6.20;;;;;;;13.28;95.19;102000.88;6222291;22;20056;-77
2023/05/23 02:24:02;;;;;;;12.88;6.20;;;;;;;13.30;95.56;102003.88;6250166;22;20017;-77
2023/05/23 02:26:29;;;;;;;7.85;5.68;;;;;;;13.32;95.66;101998.13;6247029;22;20100;-77
2023/05/23 02:28:55;;;;;;;12.48;6.47;;;;;;;13.32;95.44;101996.19;6250104;22;20043;-77
2023/05/23 02:31:23;;;;;;;11.57;6.57;;;;;;;13.33;95.39;102002.28;6248264;22;20017;-77
2023/05/23 02:33:50;;;;;;;8.90;6.13;;;;;;;13.31;95.04;102002.72;6247906;22;20017;-76
2023/05/23 02:36:16;;;;;;;15.80;6.65;;;;;;;13.32;95.30;102004.22;6248939;22;20013;-77
2023/05/23 02:38:43;;;;;;;12.80;6.60;;;;;;;13.34;95.06;102015.22;6247968;22;20092;-77
2023/05/23 02:41:10;;;;;;;10.05;6.22;;;;;;;13.36;95.22;102020.16;6247483;22;20522;-76
2023/05/23 02:43:38;;;;;;;10.10;6.13;;;;;;;13.34;95.05;102011.81;6246953;22;20052;-77
2023/05/23 02:46:04;;;;;;;14.10;6.05;;;;;;;13.34;94.82;102022.50;6247244;22;20413;-77
2023/05/23 02:48:31;;;;;;;12.32;6.20;;;;;;;13.33;94.35;102024.44;6247789;22;20021;-77
2023/05/23 02:50:58;;;;;;;15.25;6.65;;;;;;;13.33;94.43;102013.72;6248101;22;20096;-77
2023/05/23 02:53:25;;;;;;;13.57;6.53;;;;;;;13.36;94.03;102022.81;6247283;22;20643;-77
2023/05/23 02:55:52;;;;;;;13.90;6.05;;;;;;;13.36;94.18;102025.50;6247972;22;20576;-77
2023/05/23 02:58:19;;;;;;;11.32;6.13;;;;;;;13.36;94.06;102025.50;6247052;22;20048;-77
2023/05/23 03:00:46;;;;;;;12.95;6.13;;;;;;;13.38;94.08;102022.41;6247385;22;20020;-77
2023/05/23 03:03:12;;;;;;;14.55;6.45;;;;;;;13.39;93.97;102029.25;6247308;22;20048;-77
2023/05/23 03:05:39;;;;;;;13.75;6.47;;;;;;;13.39;94.13;102021.22;6247639;22;20484;-77
2023/05/23 03:08:06;;;;;;;11.32;6.63;;;;;;;13.38;94.10;102017.06;6249179;22;20394;-76
2023/05/23 03:10:32;;;;;;;12.93;6.78;;;;;;;13.37;93.81;102023.56;6247640;22;20091;-77
2023/05/23 03:12:59;;;;;;;13.40;6.50;;;;;;;13.37;93.92;102020.91;6247834;22;20047;-77
2023/05/23 03:15:26;;;;;;;11.10;6.32;;;;;;;13.36;93.85;102025.50;6246623;22;20017;-76
2023/05/23 03:17:52;;;;;;;12.73;6.40;;;;;;;13.35;93.33;102019.41;6247630;22;20362;-76
2023/05/23 03:20:19;;;;;;;20.63;6.25;;;;;;;13.32;93.38;102025.59;6221744;22;20020;-77
2023/05/23 03:22:45;;;;;;;11.57;6.65;;;;;;;13.29;93.23;102015.75;6247501;22;20025;-76
2023/05/23 03:25:14;;;;;;;17.60;7.30;;;;;;;13.28;93.81;102030.31;6248743;22;20016;-76
2023/05/23 03:27:40;;;;;;;13.50;7.05;;;;;;;13.26;93.90;102021.97;6249305;22;20012;-76
2023/05/23 03:30:08;;;;;;;16.52;7.38;;;;;;;13.24;93.46;102031.59;6246746;22;20103;-76
2023/05/23 03:32:35;;;;;;;24.08;8.35;;;;;;;13.21;93.46;102030.50;6247064;22;20025;-76
2023/05/23 03:35:01;;;;;;;12.88;7.13;;;;;;;13.20;93.46;102028.25;6247739;22;20082;-76
2023/05/23 03:37:28;;;;;;;16.83;7.68;;;;;;;13.14;93.17;102020.00;6248663;22;20017;-77
2023/05/23 03:39:54;;;;;;;18.27;7.45;;;;;;;13.14;93.15;102032.63;6249225;22;20012;-77
2023/05/23 03:42:21;;;;;;;18.80;8.45;;;;;;;13.14;93.28;102036.06;6246673;22;20025;-77
2023/05/23 03:44:47;;;;;;;22.73;8.13;;;;;;;13.11;93.13;102033.47;6246926;22;20442;-76
2023/05/23 03:47:14;;;;;;;17.08;7.53;;;;;;;13.10;93.05;102045.34;6246621;22;20040;-76
2023/05/23 03:49:44;;;;;;;16.95;7.35;;;;;;;13.08;93.07;102039.66;6247219;22;20013;-77
2023/05/23 03:52:11;;;;;;;20.08;8.00;;;;;;;13.06;92.96;102036.66;6246794;22;20443;-76
2023/05/23 03:54:38;;;;;;;21.00;8.18;;;;;;;13.02;92.54;102055.47;6248014;22;20514;-75
2023/05/23 03:57:06;;;;;;;16.67;7.20;;;;;;;13.00;92.34;102052.47;6248034;22;20100;-76
2023/05/23 03:59:34;;;;;;;21.40;7.28;;;;;;;12.96;92.38;102062.50;6247352;22;20013;-76
2023/05/23 04:02:04;;;;;;;15.20;7.38;;;;;;;12.93;93.10;102052.66;6248385;22;20021;-76
2023/05/23 04:04:31;;;;;;;14.15;6.57;;;;;;;12.93;92.70;102056.09;6248173;22;20020;-76
2023/05/23 04:06:58;;;;;;;14.38;7.15;;;;;;;12.91;93.07;102069.13;6248505;22;20028;-75
2023/05/23 04:09:24;;;;;;;14.68;6.95;;;;;;;12.90;92.84;102064.97;6247686;22;20020;-76
2023/05/23 04:11:52;;;;;;;22.65;7.72;;;;;;;12.87;93.27;102068.47;6248067;22;20021;-77
2023/05/23 04:14:21;;;;;;;17.25;7.57;;;;;;;12.87;93.15;102065.06;6247682;22;20025;-76
2023/05/23 04:16:48;;;;;;;11.57;6.38;;;;;;;12.86;93.47;102074.25;6248536;22;20112;-75
2023/05/23 04:19:15;;;;;;;18.02;6.45;;;;;;;12.82;93.46;102069.00;6247774;22;20088;-76
2023/05/23 04:21:42;;;;;;;16.42;6.43;;;;;;;12.81;93.68;102074.75;6248873;22;20578;-76
2023/05/23 04:24:12;;;;;;;15.70;6.95;;;;;;;12.80;93.61;102074.00;6247439;22;20089;-76
2023/05/23 04:26:39;;;;;;;13.77;6.05;;;;;;;12.78;93.30;102081.72;6247763;22;20096;-77
2023/05/23 04:29:05;;;;;;;14.05;5.85;;;;;;;12.78;93.15;102091.66;6247938;22;20017;-77
2023/05/23 04:31:33;;;;;;;13.90;5.30;;;;;;;12.75;92.71;102085.22;6247816;22;20075;-76
2023/05/23 04:34:01;;;;;;;14.95;5.15;;;;;;;12.72;92.58;102090.66;6247792;22;20020;-76
2023/05/23 04:36:29;;;;;;;13.15;5.13;;;;;;;12.68;92.45;102096.09;6247250;22;20410;-76
2023/05/23 04:38:56;;;;;;;18.38;5.35;;;;;;;12.65;92.72;102102.28;6248107;22;20021;-76
2023/05/23 04:41:23;;;;;;;12.43;4.70;;;;;;;12.66;92.21;102095.75;6246540;22;20422;-77
2023/05/23 04:44:04;;;;;;;13.95;5.30;;;;;;;12.67;91.93;102100.69;6249803;22;20016;-77
2023/05/23 04:46:44;;;;;;;17.25;4.70;;;;;;;12.65;92.16;102097.69;6248308;22;20410;-76
2023/05/23 04:49:35;;;;;;;13.23;4.43;;;;;;;12.62;92.13;102103.88;6245114;22;20021;-76
2023/05/23 04:52:02;;;;;;;9.88;4.07;;;;;;;12.61;92.03;102094.34;6248367;22;20100;-76
2023/05/23 04:54:30;;;;;;;8.93;4.25;;;;;;;12.62;92.04;102100.44;6247695;22;20024;-76
2023/05/23 04:57:00;;;;;;;12.13;4.72;;;;;;;12.58;91.69;102110.47;6247599;22;20104;-76
2023/05/23 04:59:28;;;;;;;8.65;4.07;;;;;;;12.54;91.45;102117.81;6247488;22;20017;-76
2023/05/23 05:01:54;;;;;;;13.55;4.70;;;;;;;12.51;91.39;102127.41;6223380;22;20020;-76
2023/05/23 05:04:22;;;;;;;7.45;4.57;;;;;;;12.51;91.14;102132.75;6247396;22;20021;-76
2023/05/23 05:06:49;;;;;;;10.50;4.47;;;;;;;12.49;91.34;102132.41;6249689;22;20513;-77
2023/05/23 05:09:16;;;;;;;11.63;4.63;;;;;;;12.49;90.42;102132.41;6247724;22;20094;-76
2023/05/23 05:11:43;;;;;;;15.90;4.68;;;;;;;12.43;90.09;102134.09;6249395;22;20103;-76
2023/05/23 05:14:12;;;;;;;9.07;4.18;;;;;;;12.37;89.62;102146.47;6247260;22;20017;-76
2023/05/23 05:16:39;;;;;;;11.70;4.80;;;;;;;12.35;89.37;102143.47;6248526;22;20021;-76
2023/05/23 05:19:06;;;;;;;15.60;5.05;;;;;;;12.32;89.29;102145.03;6222644;22;20068;-75
2023/05/23 05:21:32;;;;;;;11.68;4.38;;;;;;;12.35;88.86;102148.81;6247594;22;20031;-76
2023/05/23 05:24:00;;;;;;;13.73;4.38;;;;;;;12.34;88.40;102156.06;6248329;22;20016;-76
2023/05/23 05:26:27;;;;;;;16.27;5.05;;;;;;;12.35;87.81;102173.59;6246796;22;20024;-75
2023/05/23 05:28:53;;;;;;;13.95;5.25;;;;;;;12.31;86.63;102166.81;6249709;22;20471;-75
2023/05/23 05:31:20;;;;;;;7.85;4.32;;;;;;;12.28;85.75;102165.72;6247729;22;20021;-76
2023/05/23 05:33:49;;;;;;;10.73;4.25;;;;;;;12.27;84.54;102171.50;6249967;22;20352;-76
2023/05/23 05:36:18;;;;;;;12.50;5.60;;;;;;;12.26;84.17;102173.41;6247592;22;20534;-75
2023/05/23 05:38:45;;;;;;;15.30;4.57;;;;;;;12.26;84.13;102189.44;6247872;22;20012;-76
2023/05/23 05:41:12;;;;;;;12.70;4.57;;;;;;;12.27;83.65;102198.94;6246737;22;20087;-75
2023/05/23 05:43:44;;;;;;;7.68;4.70;;;;;;;12.32;83.58;102184.34;6248477;22;20017;-76
2023/05/23 05:46:12;;;;;;;13.45;4.90;;;;;;;12.31;83.08;102191.59;6247213;22;20021;-76
2023/05/23 05:48:39;;;;;;;11.43;5.10;;;;;;;12.35;82.59;102175.50;6222715;22;20051;-76
2023/05/23 05:51:09;;;;;;;10.07;5.07;;;;;;;12.36;82.79;102195.69;6247883;22;20092;-77
2023/05/23 05:53:36;;;;;;;8.27;4.35;;;;;;;12.43;82.25;102200.09;6247022;22;20459;-76
2023/05/23 05:56:04;;;;;;;10.13;4.55;;;;;;;12.47;81.88;102192.75;6247851;22;20023;-75
2023/05/23 05:58:31;;;;;;;11.48;5.18;;;;;;;12.47;81.65;102208.78;6249840;22;20459;-76
2023/05/23 06:01:00;;;;;;;9.02;5.45;;;;;;;12.42;81.05;102202.03;6247948;22;20512;-76
2023/05/23 06:03:27;;;;;;;9.82;5.00;;;;;;;12.42;80.40;102204.69;6250098;22;20466;-75
2023/05/23 06:05:54;;;;;;;13.10;5.47;;;;;;;12.45;80.57;102213.78;6223782;22;20020;-76
2023/05/23 06:08:21;;;;;;;10.52;5.25;;;;;;;12.46;80.30;102213.38;6247725;22;20071;-76
2023/05/23 06:10:48;;;;;;;14.35;5.53;;;;;;;12.48;80.41;102218.31;6248407;22;20047;-76
2023/05/23 06:13:15;;;;;;;12.05;5.22;;;;;;;12.51;80.32;102225.50;6248907;22;20100;-75
2023/05/23 06:15:45;;;;;;;10.38;5.30;;;;;;;12.52;79.65;102227.00;6247387;22;20017;-76
2023/05/23 06:18:13;;;;;;;8.52;5.03;;;;;;;12.53;80.07;102223.91;6246973;22;20465;-76
2023/05/23 06:20:40;;;;;;;13.50;5.32;;;;;;;12.54;80.21;102230.00;6222630;22;20017;-77
2023/05/23 06:23:12;;;;;;;12.50;5.57;;;;;;;12.51;79.71;102230.84;6247766;22;20012;-75
2023/05/23 06:25:39;;;;;;;16.67;5.63;;;;;;;12.51;79.87;102222.81;6248697;22;20022;-76
2023/05/23 06:28:06;;;;;;;10.20;5.13;;;;;;;12.55;79.70;102220.81;6248493;22;20445;-76
2023/05/23 06:30:34;;;;;;;7.88;5.28;;;;;;;12.54;79.87;102230.75;6248834;22;20031;-75
2023/05/23 06:33:03;;;;;;;11.57;5.55;;;;;;;12.54;79.93;102225.41;6250554;22;20019;-77
2023/05/23 06:35:30;;;;;;;10.77;5.68;;;;;;;12.56;79.88;102223.06;6250233;22;20084;-77
2023/05/23 06:37:59;;;;;;;15.10;5.50;;;;;;;12.53;79.56;102228.50;6250075;22;20092;-78
2023/05/23 06:40:26;;;;;;;7.28;5.18;;;;;;;12.51;79.67;102222.81;6248361;22;20083;-78
2023/05/23 06:42:52;;;;;;;9.07;5.03;;;;;;;12.51;79.93;102228.16;6250747;22;20008;-77
2023/05/23 06:45:39;;;;;;;11.35;5.95;;;;;;;12.48;80.67;102219.06;6249012;22;20019;-76
2023/05/23 06:48:05;;;;;;;9.98;5.53;;;;;;;12.53;80.50;102229.25;6248369;22;20024;-76
2023/05/23 06:50:35;;;;;;;10.90;5.65;;;;;;;12.51;80.26;102236.94;6223879;22;20031;-76
2023/05/23 06:53:02;;;;;;;10.65;4.88;;;;;;;12.48;80.99;102232.41;6248280;22;20016;-76
2023/05/23 06:55:29;;;;;;;9.35;5.45;;;;;;;12.49;81.47;102241.19;6248510;22;20020;-77
2023/05/23 06:57:56;;;;;;;9.77;4.63;;;;;;;12.47;82.08;102241.59;6248296;22;20044;-78
2023/05/23 07:00:23;;;;;;;7.10;4.28;;;;;;;12.41;82.94;102237.91;6248287;22;20458;-77
2023/05/23 07:03:02;;;;;;;5.43;3.63;;;;;;;12.38;83.58;102241.44;6248826;22;20019;-77
2023/05/23 07:05:29;;;;;;;6.65;3.50;;;;;;;12.40;83.30;102249.00;6222891;22;20016;-77
2023/05/23 07:07:56;;;;;;;5.43;3.10;;;;;;;12.40;83.41;102244.41;6222738;22;20025;-76
2023/05/23 07:10:25;;;;;;;11.00;3.70;;;;;;;12.37;83.73;102242.59;6248020;22;20032;-76
2023/05/23 07:12:56;;;;;;;7.35;3.20;;;;;;;12.37;84.27;102249.88;6248379;22;20055;-77
2023/05/23 07:15:24;;;;;;;10.55;3.40;;;;;;;12.37;84.60;102263.97;6248297;22;20017;-77
2023/05/23 07:18:03;;;;;;;7.38;2.90;;;;;;;12.37;85.48;102249.88;6226110;22;20019;-77
2023/05/23 07:20:32;;;;;;;10.25;2.88;;;;;;;12.28;84.94;102272.53;6223071;22;20108;-76
2023/05/23 07:23:08;;;;;;;14.88;2.83;;;;;;;12.26;84.03;102266.84;6248111;22;20021;-79
2023/05/23 07:25:35;;;;;;;10.63;2.65;;;;;;;12.25;81.85;102273.38;6248284;22;20079;-76
2023/05/23 07:28:09;;;;;;;10.35;2.47;;;;;;;12.30;81.23;102270.22;6247614;22;20427;-77
2023/05/23 07:30:36;;;;;;;11.38;2.80;;;;;;;12.40;80.56;102268.44;6248329;22;20055;-78
2023/05/23 07:33:03;;;;;;;11.25;2.72;;;;;;;12.51;79.12;102268.22;6223037;22;20024;-79
2023/05/23 07:35:31;;;;;;;14.63;2.80;;;;;;;12.60;77.71;102271.09;6223028;22;20023;-77
2023/05/23 07:37:59;;;;;;;9.40;2.80;;;;;;;12.85;75.71;102268.56;6248166;22;20088;-76
2023/05/23 07:40:26;;;;;;;8.57;2.53;;;;;;;12.88;73.44;102278.44;6248280;22;20450;-77
2023/05/23 07:42:56;;;;;;;16.30;3.22;;;;;;;12.86;74.07;102280.03;6250286;22;20013;-80
2023/05/23 07:45:22;;;;;;;10.20;2.50;;;;;;;12.81;73.84;102283.19;6250563;22;20024;-84
2023/05/23 07:47:49;;;;;;;13.30;2.90;;;;;;;12.79;72.90;102278.28;6223572;22;20032;-82
2023/05/23 07:50:17;;;;;;;9.23;2.90;;;;;;;12.91;72.52;102274.94;6247545;22;20091;-79
2023/05/23 07:52:43;;;;;;;11.38;2.40;;;;;;;12.98;71.24;102284.69;6222998;22;20021;-80
2023/05/23 07:55:14;;;;;;;15.70;2.58;;;;;;;13.02;71.10;102288.03;6223151;22;20020;-80
2023/05/23 07:57:41;;;;;;;9.77;2.53;;;;;;;13.13;71.03;102269.09;6249683;22;20120;-79
2023/05/23 08:00:12;;;;;;;8.07;2.80;;;;;;;13.35;71.39;102286.09;6248387;22;20468;-78
2023/05/23 08:02:41;;;;;;;11.38;2.83;;;;;;;13.58;70.79;102279.81;6250236;22;20020;-77
2023/05/23 08:05:18;;;;;;;15.05;3.05;;;;;;;13.67;69.69;102279.91;6247145;22;20017;-78
2023/05/23 08:07:46;;;;;;;5.50;2.47;;;;;;;13.64;69.56;102281.50;6223105;22;20028;-78
2023/05/23 08:10:13;;;;;;;11.38;2.88;;;;;;;13.69;69.68;102283.66;6222191;22;20075;-80
2023/05/23 08:12:40;;;;;;;8.90;2.55;;;;;;;13.66;68.16;102287.19;6248065;22;20021;-82
2023/05/23 08:15:13;;;;;;;10.60;2.53;;;;;;;13.61;68.76;102292.31;6247685;22;20350;-81
2023/05/23 08:17:43;;;;;;;15.43;2.42;;;;;;;13.72;68.39;102294.72;6247932;22;20517;-80
2023/05/23 08:20:11;;;;;;;13.48;2.78;;;;;;;13.64;67.04;102284.19;6221803;22;20025;-78
2023/05/23 08:22:37;;;;;;;6.07;2.15;;;;;;;13.65;67.50;102293.72;6247933;22;20017;-78
2023/05/23 08:25:05;;;;;;;8.70;2.67;;;;;;;13.62;67.70;102297.25;6247772;22;20021;-79
2023/05/23 08:27:36;;;;;;;11.57;2.67;;;;;;;13.57;67.56;102295.09;6223318;22;20123;-79
2023/05/23 08:30:12;;;;;;;13.00;2.55;;;;;;;13.55;68.13;102304.72;6247302;22;20021;-80
2023/05/23 08:32:38;;;;;;;8.05;2.83;;;;;;;13.56;67.86;102308.91;6247537;22;20382;-79
2023/05/23 08:35:05;;;;;;;9.60;3.17;;;;;;;13.79;67.25;102300.63;6246895;22;20020;-78
2023/05/23 08:37:32;;;;;;;12.73;2.70;;;;;;;13.94;66.59;102309.03;6247650;22;20017;-77
2023/05/23 08:39:59;;;;;;;12.52;2.42;;;;;;;13.97;66.67;102311.59;6247580;22;20082;-78
2023/05/23 08:42:37;;;;;;;14.45;2.67;;;;;;;13.94;66.74;102314.38;6226547;22;20044;-78
2023/05/23 08:45:07;;;;;;;17.15;2.97;;;;;;;13.97;66.21;102319.66;6248932;22;20020;-79
2023/05/23 08:47:39;;;;;;;9.60;2.90;;;;;;;13.88;66.33;102321.44;6248480;22;20016;-78
2023/05/23 08:50:07;;;;;;;7.25;2.33;;;;;;;13.85;66.04;102314.25;6249016;22;20108;-79
2023/05/23 08:52:39;;;;;;;13.05;2.85;;;;;;;14.12;65.59;102313.88;6224009;22;20021;-81
2023/05/23 08:55:08;;;;;;;10.55;3.13;;;;;;;14.50;64.96;102325.41;6250694;22;20016;-79
2023/05/23 08:57:36;;;;;;;11.70;3.17;;;;;;;14.56;63.91;102323.69;6249055;22;20455;-79
2023/05/23 09:00:19;;;;;;;15.52;4.75;;;;;;;14.58;63.63;102329.38;6248172;22;20108;-79
2023/05/23 09:02:46;;;;;;;10.35;3.67;;;;;;;14.46;63.46;102340.84;6250563;22;20013;-80
2023/05/23 09:05:29;;;;;;;15.75;3.85;;;;;;;14.35;64.09;102341.16;6249620;22;20012;-79
2023/05/23 09:07:56;;;;;;;9.30;2.95;;;;;;;14.45;63.32;102336.66;6249065;22;20109;-78
2023/05/23 09:10:28;;;;;;;16.85;3.60;;;;;;;14.62;62.61;102340.00;6248037;22;20790;-78
2023/05/23 09:12:55;;;;;;;16.27;3.60;;;;;;;14.77;62.65;102338.41;6249629;22;20027;-80
2023/05/23 09:15:22;;;;;;;8.73;2.92;;;;;;;15.07;61.33;102337.09;6250941;22;20013;-81
2023/05/23 09:17:49;;;;;;;12.38;2.97;;;;;;;15.34;60.66;102333.91;6249093;22;20459;-79
2023/05/23 09:20:17;;;;;;;8.57;2.92;;;;;;;15.33;59.86;102357.28;6248818;22;20092;-79
2023/05/23 09:22:54;;;;;;;15.30;3.17;;;;;;;15.17;61.10;102351.34;6249285;22;20104;-80
2023/05/23 09:25:21;;;;;;;12.85;3.45;;;;;;;15.24;61.32;102351.09;6248857;22;20013;-80
2023/05/23 09:27:48;;;;;;;13.40;2.75;;;;;;;15.18;61.13;102366.25;6248771;22;20025;-80
2023/05/23 09:30:16;;;;;;;12.73;2.75;;;;;;;15.22;61.11;102356.88;6248847;22;20071;-80
2023/05/23 09:32:59;;;;;;;10.35;3.13;;;;;;;15.30;60.97;102360.09;6250882;22;20017;-80
2023/05/23 09:35:31;;;;;;;12.98;3.65;;;;;;;15.34;60.20;102353.44;6249258;22;20020;-81
2023/05/23 09:37:58;;;;;;;12.80;2.97;;;;;;;15.42;59.61;102358.56;6249353;22;20455;-80
2023/05/23 09:40:30;;;;;;;15.15;3.40;;;;;;;15.35;60.34;102362.97;6223351;22;20215;-80
2023/05/23 09:43:03;;;;;;;15.38;2.97;;;;;;;15.54;59.86;102371.97;6249472;22;20021;-81
2023/05/23 09:45:31;;;;;;;12.93;2.47;;;;;;;16.10;57.34;102373.88;6249119;22;20091;-80
2023/05/23 09:48:00;;;;;;;8.68;2.90;;;;;;;16.38;56.72;102356.00;6249328;22;20104;-81
2023/05/23 09:50:32;;;;;;;13.43;3.13;;;;;;;16.59;56.95;102363.25;6248136;22;20025;-82
2023/05/23 09:53:00;;;;;;;10.68;2.85;;;;;;;16.65;54.84;102366.13;6249166;22;20016;-81
2023/05/23 09:55:27;;;;;;;11.00;2.80;;;;;;;16.81;54.40;102373.94;6250461;22;20095;-80
2023/05/23 09:57:57;;;;;;;12.18;2.83;;;;;;;17.20;53.71;102364.34;6248974;22;20450;-80
2023/05/23 10:00:25;;;;;;;8.70;2.75;;;;;;;17.29;53.38;102375.13;6250212;22;20029;-80
2023/05/23 10:03:09;;;;;;;11.68;2.92;;;;;;;16.74;53.41;102368.13;6251267;22;20020;-80
2023/05/23 10:05:47;;;;;;;15.15;3.00;;;;;;;16.30;55.03;102370.88;6249496;22;20013;-80
2023/05/23 10:08:35;;;;;;;9.27;3.72;;;;;;;16.22;55.53;102378.44;6248751;22;20016;-80
2023/05/23 10:11:13;;;;;;;7.88;2.60;;;;;;;16.68;55.32;102378.69;6251135;22;20421;-82
2023/05/23 10:13:42;;;;;;;12.60;2.75;;;;;;;17.11;52.12;102379.72;6249038;22;20498;-82
2023/05/23 10:16:23;;;;;;;9.25;2.75;;;;;;;17.50;51.58;102368.13;6250519;22;20418;-83
2023/05/23 10:18:58;;;;;;;9.10;2.42;;;;;;;17.89;50.92;102374.56;6251281;22;20020;-82
2023/05/23 10:21:37;;;;;;;12.38;2.63;;;;;;;17.64;51.26;102388.31;6250674;22;20020;-79
2023/05/23 10:24:04;;;;;;;10.23;3.13;;;;;;;17.29;52.93;102388.56;6251038;22;20013;-79
2023/05/23 10:26:31;;;;;;;12.80;3.35;;;;;;;17.25;53.37;102384.53;6250748;22;20475;-81
2023/05/23 10:28:59;;;;;;;9.23;2.78;;;;;;;17.30;53.44;102389.31;6250249;22;20108;-79
2023/05/23 10:31:27;;;;;;;12.40;2.55;;;;;;;16.98;54.10;102394.03;6250301;22;20027;-79
2023/05/23 10:34:22;;;;;;;10.13;3.03;;;;;;;16.84;54.73;102402.66;6248973;22;20454;-77
2023/05/23 10:36:57;;;;;;;10.68;2.95;;;;;;;16.65;53.37;102388.41;6238816;22;20021;-78
2023/05/23 10:39:39;;;;;;;6.35;2.25;;;;;;;16.82;53.71;102383.53;6248518;22;20436;-78
2023/05/23 10:42:18;;;;;;;9.80;2.53;;;;;;;16.96;53.01;102388.34;6248310;22;20044;-78
2023/05/23 10:44:44;;;;;;;11.93;2.90;;;;;;;16.82;51.33;102391.59;6250232;22;20031;-78
2023/05/23 10:47:11;;;;;;;10.93;2.83;;;;;;;16.78;51.83;102401.00;6250108;22;20031;-79
2023/05/23 10:49:45;;;;;;;6.43;2.67;;;;;;;17.14;51.64;102395.75;6250612;22;20019;-79
2023/05/23 10:52:14;;;;;;;5.05;2.40;;;;;;;17.16;51.61;102389.91;6250486;22;20016;-80
2023/05/23 10:54:50;;;;;;;9.48;3.08;;;;;;;16.86;52.00;102410.28;6248635;22;20407;-80
2023/05/23 10:57:21;;;;;;;10.10;2.85;;;;;;;16.63;52.16;102398.06;6249725;22;20019;-79
2023/05/23 10:59:51;;;;;;;9.27;2.97;;;;;;;16.59;53.57;102402.81;6250089;22;20067;-79
2023/05/23 11:02:25;;;;;;;9.40;2.97;;;;;;;16.59;53.25;102395.50;6248991;22;20442;-79
2023/05/23 11:05:14;;;;;;;9.18;2.80;;;;;;;16.80;53.90;102396.66;6250155;22;20112;-80
2023/05/23 11:07:41;;;;;;;8.93;2.58;;;;;;;17.47;52.77;102400.56;6250635;22;20095;-80
2023/05/23 11:10:10;;;;;;;10.05;2.67;;;;;;;17.72;51.40;102397.63;6249343;22;20096;-80
2023/05/23 11:12:39;;;;;;;7.50;2.70;;;;;;;17.50;50.31;102405.81;6249929;22;20028;-81
2023/05/23 11:15:18;;;;;;;10.00;2.40;;;;;;;17.25;50.53;102395.28;6250300;22;20016;-81
2023/05/23 11:17:53;;;;;;;5.78;2.40;;;;;;;17.77;50.54;102401.66;6249306;22;20096;-82
2023/05/23 11:20:29;;;;;;;4.88;2.03;;;;;;;18.39;48.00;102393.19;6249989;22;20477;-79
2023/05/23 11:23:01;;;;;;;5.05;2.42;;;;;;;18.31;47.36;102398.91;6250440;22;20466;-79
2023/05/23 11:25:41;;;;;;;8.10;3.33;;;;;;;17.57;50.12;102412.84;6248333;22;20481;-79
2023/05/23 11:28:11;;;;;;;12.35;2.40;;;;;;;17.17;48.82;102402.19;6249332;22;20016;-79
2023/05/23 11:30:39;;;;;;;6.55;2.20;;;;;;;17.15;50.34;102401.88;6250243;22;20009;-80